createdAt,value
2022-08-27T00:02:09.484Z,71.80
2022-08-27T00:04:38.542Z,71.78
2022-08-27T00:07:08.860Z,71.84
2022-08-27T00:09:36.931Z,72.28
2022-08-27T00:12:05.882Z,72.22
2022-08-27T00:14:34.504Z,72.26
2022-08-27T00:17:03.170Z,72.17
2022-08-27T00:19:31.647Z,72.33
2022-08-27T00:21:59.536Z,72.47
2022-08-27T00:24:27.607Z,72.60
2022-08-27T00:26:55.838Z,72.71
2022-08-27T00:29:24.159Z,72.85
2022-08-27T00:31:53.524Z,72.93
2022-08-27T00:34:24.154Z,73.00
2022-08-27T00:36:53.487Z,73.11
2022-08-27T00:39:21.765Z,73.13
2022-08-27T00:41:49.836Z,73.17
2022-08-27T00:44:18.007Z,73.16
2022-08-27T00:46:57.239Z,73.42
2022-08-27T00:49:28.996Z,73.47
2022-08-27T00:52:01.367Z,73.77
2022-08-27T00:54:30.089Z,73.65
2022-08-27T00:56:59.966Z,73.80
2022-08-27T00:59:31.415Z,73.97
2022-08-27T01:02:18.942Z,74.10
2022-08-27T01:05:01.759Z,74.13
2022-08-27T01:07:32.286Z,74.13
2022-08-27T01:10:02.716Z,74.34
2022-08-27T01:12:33.449Z,74.54
2022-08-27T01:15:06.328Z,74.53
2022-08-27T01:17:38.800Z,74.56
2022-08-27T01:20:14.099Z,74.69
2022-08-27T01:22:50.923Z,74.80
2022-08-27T01:25:20.355Z,74.88
2022-08-27T01:27:48.595Z,74.96
2022-08-27T01:30:21.067Z,75.06
2022-08-27T01:32:51.087Z,75.22
2022-08-27T01:35:20.793Z,75.33
2022-08-27T01:37:52.317Z,75.38
2022-08-27T01:40:22.585Z,75.43
2022-08-27T01:42:53.770Z,75.54
2022-08-27T01:45:28.748Z,75.77
2022-08-27T01:47:58.653Z,76.00
2022-08-27T01:50:32.004Z,76.01
2022-08-27T01:53:11.692Z,76.53
2022-08-27T01:55:41.503Z,76.78
2022-08-27T01:58:17.764Z,76.81
2022-08-27T02:00:56.064Z,77.02
2022-08-27T02:03:25.262Z,77.38
2022-08-27T02:05:53.916Z,77.34
2022-08-27T02:08:22.435Z,77.15
2022-08-27T02:10:51.532Z,77.14
2022-08-27T02:13:19.664Z,77.23
2022-08-27T02:15:47.710Z,77.16
2022-08-27T02:18:16.529Z,77.42
2022-08-27T02:20:48.640Z,77.35
2022-08-27T02:23:17.313Z,77.62
2022-08-27T02:25:47.435Z,77.90
2022-08-27T02:28:15.396Z,77.79
2022-08-27T02:30:44.245Z,78.22
2022-08-27T02:33:12.623Z,78.43
2022-08-27T02:35:44.229Z,78.49
2022-08-27T02:38:14.333Z,78.72
2022-08-27T02:40:42.359Z,78.63
2022-08-27T02:43:10.273Z,78.75
2022-08-27T02:45:43.876Z,78.93
2022-08-27T02:48:12.466Z,78.97
2022-08-27T02:50:40.833Z,78.90
2022-08-27T02:53:09.192Z,79.16
2022-08-27T02:55:37.793Z,79.35
2022-08-27T02:58:05.764Z,79.47
2022-08-27T03:00:34.042Z,79.66
2022-08-27T03:03:02.459Z,79.65
2022-08-27T03:05:30.587Z,79.54
2022-08-27T03:07:59.744Z,79.65
2022-08-27T03:10:27.752Z,79.82
2022-08-27T03:12:56.641Z,80.41
2022-08-27T03:15:25.219Z,80.35
2022-08-27T03:18:12.123Z,80.24
2022-08-27T03:20:42.256Z,80.76
2022-08-27T03:23:11.352Z,80.66
2022-08-27T03:25:39.423Z,80.89
2022-08-27T03:28:18.746Z,80.85
2022-08-27T03:31:02.156Z,81.22
2022-08-27T03:33:37.696Z,81.09
2022-08-27T03:36:07.693Z,81.08
2022-08-27T03:38:37.148Z,81.02
2022-08-27T03:41:05.797Z,81.11
2022-08-27T03:43:34.176Z,81.08
2022-08-27T03:46:02.534Z,81.17
2022-08-27T03:48:32.321Z,81.13
2022-08-27T03:51:06.743Z,81.24
2022-08-27T03:53:36.116Z,81.27
2022-08-27T03:56:05.461Z,81.39
2022-08-27T03:58:35.849Z,81.40
2022-08-27T04:01:06.060Z,81.46
2022-08-27T04:03:35.533Z,81.51
2022-08-27T04:06:04.253Z,81.65
2022-08-27T04:08:33.449Z,82.04
2022-08-27T04:11:06.537Z,82.05
2022-08-27T04:13:34.506Z,81.90
2022-08-27T04:16:02.601Z,81.94
2022-08-27T04:18:30.541Z,81.91
2022-08-27T04:20:58.717Z,82.03
2022-08-27T04:23:26.645Z,82.03
2022-08-27T04:25:54.553Z,82.14
2022-08-27T04:28:22.487Z,82.21
2022-08-27T04:30:50.724Z,82.24
2022-08-27T04:33:19.029Z,82.28
2022-08-27T04:35:47.140Z,82.27
2022-08-27T04:38:15.722Z,82.31
2022-08-27T04:41:02.432Z,82.30
2022-08-27T04:43:30.398Z,82.38
2022-08-27T04:45:58.398Z,82.38
2022-08-27T04:48:26.640Z,82.54
2022-08-27T04:50:54.617Z,82.47
2022-08-27T04:53:22.576Z,82.37
2022-08-27T04:55:53.306Z,82.27
2022-08-27T04:58:22.617Z,82.15
2022-08-27T05:00:53.546Z,81.99
2022-08-27T05:03:24.442Z,81.44
2022-08-27T05:05:53.752Z,80.20
2022-08-27T05:08:21.750Z,79.71
2022-08-27T05:10:51.770Z,79.61
2022-08-27T05:13:21.477Z,80.30
2022-08-27T05:15:49.770Z,80.29
2022-08-27T05:18:17.921Z,80.36
2022-08-27T05:20:49.649Z,80.58
2022-08-27T05:23:19.188Z,80.50
2022-08-27T05:25:49.507Z,80.34
2022-08-27T05:28:21.882Z,80.48
2022-08-27T05:31:06.308Z,80.66
2022-08-27T05:33:35.426Z,80.63
2022-08-27T05:36:03.587Z,80.86
2022-08-27T05:38:32.653Z,80.99
2022-08-27T05:41:12.663Z,80.90
2022-08-27T05:43:45.378Z,80.75
2022-08-27T05:46:17.336Z,80.93
2022-08-27T05:48:45.804Z,80.86
2022-08-27T05:51:21.068Z,80.90
2022-08-27T05:54:08.737Z,80.81
2022-08-27T05:56:38.953Z,80.84
2022-08-27T05:59:25.972Z,80.63
2022-08-27T06:01:56.802Z,80.60
2022-08-27T06:04:25.691Z,80.30
2022-08-27T06:06:53.923Z,79.98
2022-08-27T06:09:26.240Z,80.18
2022-08-27T06:11:55.709Z,80.00
2022-08-27T06:14:23.986Z,79.79
2022-08-27T06:16:52.290Z,79.45
2022-08-27T06:19:20.734Z,79.36
2022-08-27T06:22:00.389Z,79.06
2022-08-27T06:24:30.530Z,78.50
2022-08-27T06:26:58.499Z,78.12
2022-08-27T06:29:26.471Z,77.52
2022-08-27T06:31:56.592Z,77.13
2022-08-27T06:34:24.763Z,76.82
2022-08-27T06:36:53.958Z,76.63
2022-08-27T06:39:22.025Z,76.20
2022-08-27T06:41:53.285Z,75.68
2022-08-27T06:44:21.662Z,75.21
2022-08-27T06:46:50.209Z,75.22
2022-08-27T06:49:18.265Z,75.05
2022-08-27T06:51:48.140Z,74.48
2022-08-27T06:54:17.441Z,74.30
2022-08-27T06:56:45.386Z,73.93
2022-08-27T06:59:15.969Z,74.07
2022-08-27T07:01:47.523Z,73.84
2022-08-27T07:04:21.266Z,73.30
2022-08-27T07:06:50.777Z,72.50
2022-08-27T07:09:20.991Z,71.91
2022-08-27T07:11:49.064Z,72.01
2022-08-27T07:14:17.745Z,71.17
2022-08-27T07:16:45.712Z,71.06
2022-08-27T07:19:16.266Z,70.97
2022-08-27T07:21:44.889Z,70.65
2022-08-27T07:24:13.208Z,69.87
2022-08-27T07:26:44.254Z,69.53
2022-08-27T07:29:15.404Z,69.57
2022-08-27T07:31:44.072Z,68.29
2022-08-27T07:34:12.142Z,68.36
2022-08-27T07:36:41.447Z,68.21
2022-08-27T07:39:09.820Z,66.92
2022-08-27T07:41:57.963Z,67.05
2022-08-27T07:44:28.006Z,66.83
2022-08-27T07:47:01.065Z,66.45
2022-08-27T07:49:29.792Z,65.20
2022-08-27T07:51:57.822Z,65.71
2022-08-27T07:54:26.056Z,65.90
2022-08-27T07:56:56.200Z,65.20
2022-08-27T07:59:26.256Z,64.29
2022-08-27T08:01:56.388Z,64.53
2022-08-27T08:04:26.817Z,64.33
2022-08-27T08:06:56.112Z,62.50
2022-08-27T08:09:25.290Z,62.65
2022-08-27T08:11:54.396Z,60.86
2022-08-27T08:14:22.956Z,62.19
2022-08-27T08:16:51.252Z,62.39
2022-08-27T08:19:19.963Z,60.61
2022-08-27T08:21:47.875Z,60.91
2022-08-27T08:24:15.810Z,59.80
2022-08-27T08:26:44.630Z,58.72
2022-08-27T08:29:17.872Z,58.27
2022-08-27T08:31:50.416Z,57.70
2022-08-27T08:34:20.060Z,55.09
2022-08-27T08:36:54.098Z,57.01
2022-08-27T08:39:23.211Z,55.95
2022-08-27T08:41:58.100Z,54.87
2022-08-27T08:44:34.720Z,55.21
2022-08-27T08:47:03.810Z,54.71
2022-08-27T08:49:35.051Z,54.58
2022-08-27T08:52:32.418Z,54.18
2022-08-27T08:55:13.790Z,54.23
2022-08-27T08:58:28.351Z,53.06
2022-08-27T09:01:01.071Z,51.98
2022-08-27T09:03:33.228Z,51.27
2022-08-27T09:06:08.641Z,49.97
2022-08-27T09:08:41.818Z,50.64
2022-08-27T09:11:31.712Z,51.38
2022-08-27T09:14:05.411Z,51.46
2022-08-27T09:16:33.419Z,50.89
2022-08-27T09:19:06.149Z,50.94
2022-08-27T09:21:52.872Z,51.53
2022-08-27T09:24:58.522Z,50.10
2022-08-27T09:27:26.392Z,49.36
2022-08-27T09:29:56.506Z,50.34
2022-08-27T09:32:27.648Z,48.38
2022-08-27T09:35:00.692Z,48.74
2022-08-27T09:37:34.230Z,47.97
2022-08-27T09:40:13.317Z,47.66
2022-08-27T09:42:49.675Z,47.03
2022-08-27T09:45:20.017Z,47.91
2022-08-27T09:47:54.986Z,46.13
2022-08-27T09:50:32.167Z,46.45
2022-08-27T09:53:01.165Z,47.19
2022-08-27T09:55:35.310Z,46.41
2022-08-27T09:58:18.024Z,45.54
2022-08-27T10:00:47.949Z,45.46
2022-08-27T10:03:16.712Z,44.04
2022-08-27T10:05:52.042Z,44.18
2022-08-27T10:08:32.393Z,43.21
2022-08-27T10:11:05.246Z,42.59
2022-08-27T10:13:45.255Z,42.35
2022-08-27T10:16:25.247Z,41.91
2022-08-27T10:19:23.996Z,41.94
2022-08-27T10:22:05.215Z,42.29
2022-08-27T10:24:42.115Z,42.62
2022-08-27T10:27:22.267Z,41.48
2022-08-27T10:29:53.511Z,41.16
2022-08-27T10:32:32.335Z,40.78
2022-08-27T10:35:17.201Z,40.03
2022-08-27T10:38:00.220Z,40.28
2022-08-27T10:40:42.950Z,39.73
2022-08-27T10:43:13.669Z,40.01
2022-08-27T10:46:10.366Z,38.21
2022-08-27T10:49:05.825Z,38.53
2022-08-27T10:51:48.231Z,39.95
2022-08-27T10:54:54.158Z,37.82
2022-08-27T10:57:58.989Z,38.37
2022-08-27T11:01:03.873Z,38.93
2022-08-27T11:03:40.228Z,38.17
2022-08-27T11:06:35.279Z,38.17
2022-08-27T11:09:14.962Z,39.12
2022-08-27T11:14:51.046Z,37.52
2022-08-27T11:17:23.003Z,38.95
2022-08-27T11:19:59.470Z,39.06
2022-08-27T11:22:37.677Z,37.43
2022-08-27T11:25:17.787Z,37.76
2022-08-27T11:27:48.153Z,37.97
2022-08-27T11:30:59.537Z,38.39
2022-08-27T11:33:33.454Z,36.86
2022-08-27T11:36:18.722Z,35.64
2022-08-27T11:39:11.880Z,36.62
2022-08-27T11:41:49.063Z,35.63
2022-08-27T11:44:22.728Z,34.89
2022-08-27T11:46:55.443Z,34.46
2022-08-27T11:49:46.661Z,33.94
2022-08-27T11:52:24.560Z,34.27
2022-08-27T11:54:58.844Z,34.28
2022-08-27T11:57:32.989Z,33.22
2022-08-27T12:00:17.340Z,35.82
2022-08-27T12:02:46.334Z,35.45
2022-08-27T12:05:33.657Z,35.08
2022-08-27T12:08:32.752Z,36.32
2022-08-27T12:11:03.796Z,35.26
2022-08-27T12:13:41.082Z,34.57
2022-08-27T12:16:33.897Z,32.61
2022-08-27T12:19:20.228Z,34.68
2022-08-27T12:22:18.508Z,32.14
2022-08-27T12:24:52.978Z,33.30
2022-08-27T12:27:32.405Z,33.90
2022-08-27T12:30:25.013Z,33.08
2022-08-27T12:32:54.824Z,30.31
2022-08-27T12:35:31.392Z,30.89
2022-08-27T12:38:37.352Z,30.80
2022-08-27T12:41:09.431Z,30.76
2022-08-27T12:43:43.736Z,32.09
2022-08-27T12:46:11.509Z,31.48
2022-08-27T12:48:46.840Z,29.40
2022-08-27T12:51:23.204Z,27.95
2022-08-27T12:54:12.670Z,27.44
2022-08-27T12:56:40.538Z,27.39
2022-08-27T12:59:30.629Z,28.17
2022-08-27T13:02:14.333Z,28.06
2022-08-27T13:04:43.918Z,27.53
2022-08-27T13:07:12.142Z,27.70
2022-08-27T13:09:40.564Z,28.25
2022-08-27T13:12:17.807Z,27.52
2022-08-27T13:14:55.981Z,27.85
2022-08-27T13:17:26.359Z,28.57
2022-08-27T13:20:00.325Z,28.78
2022-08-27T13:22:38.964Z,27.72
2022-08-27T13:25:21.171Z,28.72
2022-08-27T13:28:00.296Z,28.03
2022-08-27T13:30:35.685Z,27.91
2022-08-27T13:33:07.904Z,28.23
2022-08-27T13:35:37.922Z,28.25
2022-08-27T13:38:05.893Z,29.78
2022-08-27T13:40:51.675Z,30.38
2022-08-27T13:43:21.826Z,31.07
2022-08-27T13:45:51.919Z,32.69
2022-08-27T13:48:24.357Z,33.09
2022-08-27T13:50:55.528Z,31.80
2022-08-27T13:53:48.762Z,31.47
2022-08-27T13:56:35.397Z,33.06
2022-08-27T13:59:15.449Z,30.65
2022-08-27T14:02:03.309Z,29.75
2022-08-27T14:04:46.918Z,29.10
2022-08-27T14:07:42.725Z,29.40
2022-08-27T14:10:20.030Z,29.71
2022-08-27T14:12:59.975Z,29.18
2022-08-27T14:15:38.855Z,29.43
2022-08-27T14:18:26.420Z,30.82
2022-08-27T14:21:05.622Z,29.95
2022-08-27T14:23:33.731Z,29.68
2022-08-27T14:26:02.110Z,30.97
2022-08-27T14:28:32.127Z,31.55
2022-08-27T14:31:00.562Z,32.04
2022-08-27T14:33:28.787Z,31.92
2022-08-27T14:35:56.951Z,30.87
2022-08-27T14:38:27.191Z,30.65
2022-08-27T14:40:55.754Z,29.78
2022-08-27T14:43:23.718Z,31.12
2022-08-27T14:45:53.687Z,30.53
2022-08-27T14:48:28.776Z,30.71
2022-08-27T14:50:58.174Z,29.86
2022-08-27T14:53:27.165Z,29.54
2022-08-27T14:55:56.461Z,29.07
2022-08-27T14:58:24.398Z,29.43
2022-08-27T15:00:52.405Z,29.73
2022-08-27T15:03:20.370Z,29.20
2022-08-27T15:05:48.353Z,30.41
2022-08-27T15:08:17.126Z,29.93
2022-08-27T15:10:45.502Z,29.26
2022-08-27T15:13:13.674Z,30.02
2022-08-27T15:15:42.219Z,30.12
2022-08-27T15:18:10.805Z,29.86
2022-08-27T15:20:41.326Z,30.02
2022-08-27T15:23:12.818Z,29.43
2022-08-27T15:25:41.789Z,29.49
2022-08-27T15:28:09.944Z,28.18
2022-08-27T15:30:38.569Z,28.94
2022-08-27T15:33:07.045Z,30.16
2022-08-27T15:35:35.118Z,30.56
2022-08-27T15:38:03.697Z,30.88
2022-08-27T15:40:35.563Z,29.97
2022-08-27T15:43:07.622Z,29.70
2022-08-27T15:45:36.921Z,30.25
2022-08-27T15:48:05.375Z,30.48
2022-08-27T15:50:34.566Z,30.37
2022-08-27T15:53:07.585Z,30.30
2022-08-27T15:55:38.825Z,30.43
2022-08-27T15:58:09.042Z,30.64
2022-08-27T16:00:38.909Z,31.02
2022-08-27T16:03:11.507Z,31.32
2022-08-27T16:05:42.062Z,32.02
2022-08-27T16:08:11.210Z,31.86
2022-08-27T16:10:39.738Z,31.87
2022-08-27T16:13:07.810Z,32.18
2022-08-27T16:15:39.804Z,33.41
2022-08-27T16:18:08.400Z,34.03
2022-08-27T16:20:37.040Z,34.35
2022-08-27T16:23:05.315Z,34.23
2022-08-27T16:25:33.383Z,34.65
2022-08-27T16:28:01.967Z,36.53
2022-08-27T16:30:30.446Z,36.36
2022-08-27T16:32:58.626Z,36.41
2022-08-27T16:35:26.604Z,36.92
2022-08-27T16:37:54.767Z,37.20
2022-08-27T16:40:22.788Z,38.04
2022-08-27T16:42:52.339Z,38.98
2022-08-27T16:45:26.382Z,39.52
2022-08-27T16:48:13.209Z,40.37
2022-08-27T16:50:41.640Z,41.19
2022-08-27T16:53:15.750Z,41.52
2022-08-27T16:55:45.234Z,41.55
2022-08-27T16:58:27.046Z,42.39
2022-08-27T17:00:59.008Z,43.10
2022-08-27T17:03:27.387Z,43.41
2022-08-27T17:05:55.560Z,44.01
2022-08-27T17:08:26.129Z,44.45
2022-08-27T17:10:56.716Z,44.70
2022-08-27T17:13:32.774Z,45.20
2022-08-27T17:16:01.878Z,45.92
2022-08-27T17:18:30.150Z,46.52
2022-08-27T17:20:59.538Z,46.72
2022-08-27T17:23:35.655Z,47.08
2022-08-27T17:26:06.031Z,46.76
2022-08-27T17:28:34.304Z,46.88
2022-08-27T17:31:02.636Z,47.23
2022-08-27T17:33:40.504Z,47.67
2022-08-27T17:36:10.004Z,48.28
2022-08-27T17:38:39.192Z,48.67
2022-08-27T17:41:17.599Z,48.94
2022-08-27T17:43:45.564Z,49.43
2022-08-27T17:46:13.953Z,49.68
2022-08-27T17:48:42.419Z,50.27
2022-08-27T17:51:12.921Z,51.06
2022-08-27T17:53:47.367Z,51.40
2022-08-27T17:56:18.821Z,51.56
2022-08-27T17:58:48.627Z,51.69
2022-08-27T18:01:32.311Z,52.04
2022-08-27T18:04:00.281Z,52.02
2022-08-27T18:06:28.703Z,52.46
2022-08-27T18:08:56.797Z,52.66
2022-08-27T18:11:25.476Z,52.77
2022-08-27T18:13:56.303Z,52.92
2022-08-27T18:16:24.422Z,53.54
2022-08-27T18:18:52.651Z,53.55
2022-08-27T18:21:25.658Z,53.67
2022-08-27T18:23:54.936Z,53.99
2022-08-27T18:26:27.824Z,54.48
2022-08-27T18:28:57.627Z,54.76
2022-08-27T18:31:32.495Z,54.57
2022-08-27T18:34:01.040Z,55.15
2022-08-27T18:36:29.827Z,54.12
2022-08-27T18:38:58.238Z,54.88
2022-08-27T18:41:29.592Z,55.49
2022-08-27T18:43:58.654Z,55.56
2022-08-27T18:46:26.701Z,55.55
2022-08-27T18:48:54.629Z,55.85
2022-08-27T18:51:22.928Z,56.03
2022-08-27T18:53:51.140Z,56.44
2022-08-27T18:56:20.692Z,56.30
2022-08-27T18:58:49.007Z,56.78
2022-08-27T19:01:25.328Z,56.99
2022-08-27T19:03:55.097Z,57.34
2022-08-27T19:06:23.575Z,57.46
2022-08-27T19:08:52.599Z,57.50
2022-08-27T19:11:20.632Z,58.16
2022-08-27T19:13:50.656Z,58.27
2022-08-27T19:16:37.934Z,58.53
2022-08-27T19:19:06.176Z,58.90
2022-08-27T19:21:34.425Z,59.02
2022-08-27T19:24:04.440Z,59.04
2022-08-27T19:26:32.840Z,59.34
2022-08-27T19:29:01.092Z,59.44
2022-08-27T19:31:29.657Z,59.52
2022-08-27T19:33:57.847Z,59.81
2022-08-27T19:36:28.153Z,60.27
2022-08-27T19:38:56.343Z,60.27
2022-08-27T19:41:27.740Z,60.16
2022-08-27T19:43:56.169Z,60.68
2022-08-27T19:46:26.184Z,60.56
2022-08-27T19:48:55.588Z,60.98
2022-08-27T19:51:23.451Z,61.22
2022-08-27T19:53:51.932Z,61.34
2022-08-27T19:56:19.734Z,61.74
2022-08-27T19:58:47.663Z,61.97
2022-08-27T20:01:15.611Z,61.78
2022-08-27T20:03:43.603Z,61.94
2022-08-27T20:06:12.176Z,62.24
2022-08-27T20:08:40.065Z,62.08
2022-08-27T20:11:08.323Z,62.25
2022-08-27T20:13:36.296Z,62.41
2022-08-27T20:16:07.983Z,62.35
2022-08-27T20:18:41.545Z,62.44
2022-08-27T20:21:09.412Z,62.72
2022-08-27T20:23:37.295Z,62.69
2022-08-27T20:26:05.455Z,62.77
2022-08-27T20:28:39.369Z,62.78
2022-08-27T20:31:08.550Z,62.81
2022-08-27T20:33:36.456Z,62.93
2022-08-27T20:36:08.110Z,63.18
2022-08-27T20:38:36.555Z,63.12
2022-08-27T20:41:06.061Z,63.09
2022-08-27T20:43:35.762Z,63.05
2022-08-27T20:46:04.465Z,63.20
2022-08-27T20:48:32.727Z,63.44
2022-08-27T20:51:01.548Z,63.48
2022-08-27T20:53:29.487Z,63.52
2022-08-27T20:55:57.457Z,63.60
2022-08-27T20:58:44.879Z,63.42
2022-08-27T21:01:13.226Z,63.49
2022-08-27T21:03:41.473Z,63.65
2022-08-27T21:06:10.127Z,63.96
2022-08-27T21:08:39.115Z,63.98
2022-08-27T21:11:15.573Z,63.89
2022-08-27T21:13:55.665Z,64.21
2022-08-27T21:16:25.742Z,64.49
2022-08-27T21:18:54.152Z,64.56
2022-08-27T21:21:23.216Z,64.70
2022-08-27T21:23:51.285Z,64.65
2022-08-27T21:26:22.327Z,64.75
2022-08-27T21:28:54.683Z,64.92
2022-08-27T21:31:25.518Z,64.92
2022-08-27T21:33:54.520Z,65.00
2022-08-27T21:36:22.796Z,65.02
2022-08-27T21:38:51.178Z,64.99
2022-08-27T21:41:19.598Z,65.06
2022-08-27T21:43:47.727Z,65.16
2022-08-27T21:46:15.946Z,64.92
2022-08-27T21:48:43.993Z,64.73
2022-08-27T21:51:14.998Z,64.87
2022-08-27T21:53:52.811Z,64.82
2022-08-27T21:56:20.985Z,65.29
2022-08-27T21:58:48.875Z,65.07
2022-08-27T22:01:16.868Z,64.87
2022-08-27T22:03:47.007Z,64.95
2022-08-27T22:06:15.823Z,65.17
2022-08-27T22:08:43.899Z,65.20
2022-08-27T22:11:11.865Z,64.91
2022-08-27T22:13:40.340Z,65.20
2022-08-27T22:16:08.574Z,65.44
2022-08-27T22:18:37.226Z,65.54
2022-08-27T22:21:06.610Z,65.58
2022-08-27T22:23:34.672Z,65.56
2022-08-27T22:26:04.360Z,65.75
2022-08-27T22:28:32.349Z,65.89
2022-08-27T22:31:00.223Z,66.22
2022-08-27T22:33:28.285Z,66.13
2022-08-27T22:35:56.361Z,66.39
2022-08-27T22:38:24.224Z,66.49
2022-08-27T22:40:54.135Z,66.64
2022-08-27T22:43:22.204Z,66.72
2022-08-27T22:45:50.071Z,66.87
2022-08-27T22:48:18.144Z,66.74
2022-08-27T22:50:46.009Z,67.07
2022-08-27T22:53:13.977Z,66.93
2022-08-27T22:55:43.211Z,67.12
2022-08-27T22:58:14.099Z,67.09
2022-08-27T23:00:42.284Z,67.27
2022-08-27T23:03:11.670Z,67.53
2022-08-27T23:05:42.022Z,67.53
2022-08-27T23:08:13.451Z,67.75
2022-08-27T23:10:43.390Z,67.69
2022-08-27T23:13:12.467Z,67.77
2022-08-27T23:15:41.708Z,68.00
2022-08-27T23:18:10.458Z,68.04
2022-08-27T23:20:38.727Z,68.31
2022-08-27T23:23:08.231Z,68.60
2022-08-27T23:25:54.639Z,68.52
2022-08-27T23:28:23.675Z,68.62
2022-08-27T23:30:52.009Z,68.37
2022-08-27T23:33:20.579Z,68.41
2022-08-27T23:35:51.727Z,68.67
2022-08-27T23:38:21.128Z,68.64
2022-08-27T23:40:50.475Z,68.73
2022-08-27T23:43:19.727Z,68.74
2022-08-27T23:45:49.240Z,68.99
2022-08-27T23:48:17.481Z,69.03
2022-08-27T23:50:45.679Z,68.97
2022-08-27T23:53:14.978Z,68.99
2022-08-27T23:55:42.953Z,69.07
2022-08-27T23:58:11.062Z,69.00
